PWSweather.com
Personal Weather Stations
Station Observations
COONRAPIDS
Minneapolis, MN 55433

Minneapolis, MN 55433

Lat: 45.187721, Lon: -93.36828

Elevation: 898

Station Type: Davis Vantage Pro 2

High Low Average
Temperature 10.2°F-12.1°C -3.3°F-19.6°C 2.6°F-16.3°C
Dew Point -4.8°F-20.4°C -15.4°F-26.3°C -10.7°F-23.7°C
Winds 3.5 mph 5.6 kmh Calm Calm 1.0 mph SE1.6 kmh SE
Wind Gusts 6.9 mph11.1 kmh -- 3.0 mph4.8 kmh
Humidity 65% 36% 54%
Pressure 30.50 in1032.8 mb 30.41 in1029.8 mb -
Precipitation 0.00 in0.0 mm - -
Hour Temp Dew Point Humidity Winds Wind Gusts Pressure Precip Precip Rate Daily Precip Total
12:00 AM 4.6°F-15.2°C -5.2°F-20.7°C 63% 2.3 mph NNE3.7 kmh NNE 3.5 mph5.6 kmh 30.48 in1032.2 mb - 0.00 in0.0 mm 0.00 in0.0 mm
12:10 AM 4.5°F-15.3°C -5.3°F-20.7°C 63% 2.3 mph NE3.7 kmh NE 3.5 mph5.6 kmh 30.48 in1032.2 mb - 0.00 in0.0 mm 0.00 in0.0 mm
12:20 AM 4.4°F-15.3°C -5.8°F-21.0°C 62% 1.2 mph N1.9 kmh N 3.5 mph5.6 kmh 30.48 in1032.2 mb - 0.00 in0.0 mm 0.00 in0.0 mm
12:30 AM 4.3°F-15.4°C -5.9°F-21.1°C 62% 2.3 mph NNE3.7 kmh NNE 5.8 mph9.3 kmh 30.48 in1032.2 mb - 0.00 in0.0 mm 0.00 in0.0 mm
12:40 AM 4.1°F-15.5°C -6.0°F-21.1°C 62% 2.3 mph NNE3.7 kmh NNE 3.5 mph5.6 kmh 30.47 in1031.8 mb - 0.00 in0.0 mm 0.00 in0.0 mm
12:50 AM 4.1°F-15.5°C -5.7°F-20.9°C 63% 1.2 mph NNE1.9 kmh NNE 3.5 mph5.6 kmh 30.47 in1031.8 mb - 0.00 in0.0 mm 0.00 in0.0 mm
01:00 AM 3.9°F-15.6°C -6.2°F-21.2°C 62% 1.2 mph NNE1.9 kmh NNE 3.5 mph5.6 kmh 30.47 in1031.8 mb - 0.00 in0.0 mm 0.00 in0.0 mm
01:10 AM 3.8°F-15.7°C -6.3°F-21.3°C 62% 3.5 mph N5.6 kmh N 4.6 mph7.4 kmh 30.47 in1031.8 mb - 0.00 in0.0 mm 0.00 in0.0 mm
01:20 AM 3.8°F-15.7°C -6.3°F-21.3°C 62% 2.3 mph NNE3.7 kmh NNE 5.8 mph9.3 kmh 30.47 in1031.8 mb - 0.00 in0.0 mm 0.00 in0.0 mm
01:30 AM 3.8°F-15.7°C -6.0°F-21.1°C 63% 1.2 mph NNE1.9 kmh NNE 2.3 mph3.7 kmh 30.47 in1031.8 mb - 0.00 in0.0 mm 0.00 in0.0 mm
01:40 AM 3.8°F-15.7°C -6.3°F-21.3°C 62% 1.2 mph NNE1.9 kmh NNE 5.8 mph9.3 kmh 30.47 in1031.8 mb - 0.00 in0.0 mm 0.00 in0.0 mm
01:50 AM 3.6°F-15.8°C -6.9°F-21.6°C 61% 2.3 mph NNE3.7 kmh NNE 4.6 mph7.4 kmh 30.47 in1031.8 mb - 0.00 in0.0 mm 0.00 in0.0 mm
02:00 AM 3.5°F-15.8°C -6.9°F-21.6°C 61% 3.5 mph NNE5.6 kmh NNE 3.5 mph5.6 kmh 30.47 in1031.8 mb - 0.00 in0.0 mm 0.00 in0.0 mm
02:10 AM 3.5°F-15.8°C -6.6°F-21.4°C 62% 1.2 mph NE1.9 kmh NE 3.5 mph5.6 kmh 30.47 in1031.8 mb - 0.00 in0.0 mm 0.00 in0.0 mm
02:20 AM 3.5°F-15.8°C -6.6°F-21.4°C 62% 2.3 mph N3.7 kmh N 3.5 mph5.6 kmh 30.47 in1031.8 mb - 0.00 in0.0 mm 0.00 in0.0 mm
02:30 AM 3.2°F-16.0°C -6.9°F-21.6°C 62% 3.5 mph NNE5.6 kmh NNE 3.5 mph5.6 kmh 30.48 in1032.2 mb - 0.00 in0.0 mm 0.00 in0.0 mm
02:40 AM 3.0°F-16.1°C -7.1°F-21.7°C 62% 3.5 mph N5.6 kmh N 4.6 mph7.4 kmh 30.48 in1032.2 mb - 0.00 in0.0 mm 0.00 in0.0 mm
02:50 AM 2.8°F-16.2°C -7.0°F-21.7°C 63% Calm Calm 1.2 mph1.9 kmh 30.48 in1032.2 mb - 0.00 in0.0 mm 0.00 in0.0 mm
03:00 AM 2.6°F-16.3°C -7.1°F-21.7°C 63% 1.2 mph NNE1.9 kmh NNE 2.3 mph3.7 kmh 30.47 in1031.8 mb - 0.00 in0.0 mm 0.00 in0.0 mm
03:10 AM 2.4°F-16.4°C -7.3°F-21.8°C 63% 1.2 mph NNE1.9 kmh NNE 3.5 mph5.6 kmh 30.47 in1031.8 mb - 0.00 in0.0 mm 0.00 in0.0 mm
03:20 AM 2.1°F-16.6°C -7.6°F-22.0°C 63% 2.3 mph NNE3.7 kmh NNE 3.5 mph5.6 kmh 30.47 in1031.8 mb - 0.00 in0.0 mm 0.00 in0.0 mm
03:30 AM 1.8°F-16.8°C -7.6°F-22.0°C 64% 2.3 mph N3.7 kmh N 2.3 mph3.7 kmh 30.46 in1031.5 mb - 0.00 in0.0 mm 0.00 in0.0 mm
03:40 AM 1.5°F-16.9°C -8.2°F-22.3°C 63% 2.3 mph NNE3.7 kmh NNE 4.6 mph7.4 kmh 30.46 in1031.5 mb - 0.00 in0.0 mm 0.00 in0.0 mm
03:50 AM 1.2°F-17.1°C -8.1°F-22.3°C 64% Calm Calm 4.6 mph7.4 kmh 30.46 in1031.5 mb - 0.00 in0.0 mm 0.00 in0.0 mm
04:00 AM 0.9°F-17.3°C -8.8°F-22.7°C 63% Calm Calm 3.5 mph5.6 kmh 30.47 in1031.8 mb - 0.00 in0.0 mm 0.00 in0.0 mm
04:10 AM 0.7°F-17.4°C -8.6°F-22.6°C 64% 1.2 mph NNE1.9 kmh NNE 3.5 mph5.6 kmh 30.46 in1031.5 mb - 0.00 in0.0 mm 0.00 in0.0 mm
04:20 AM 0.6°F-17.4°C -8.7°F-22.6°C 64% 1.2 mph N1.9 kmh N 3.5 mph5.6 kmh 30.46 in1031.5 mb - 0.00 in0.0 mm 0.00 in0.0 mm
04:30 AM 0.5°F-17.5°C -8.5°F-22.5°C 65% 1.2 mph N1.9 kmh N 3.5 mph5.6 kmh 30.47 in1031.8 mb - 0.00 in0.0 mm 0.00 in0.0 mm
04:40 AM 0.2°F-17.7°C -9.1°F-22.8°C 64% 2.3 mph NNE3.7 kmh NNE 4.6 mph7.4 kmh 30.47 in1031.8 mb - 0.00 in0.0 mm 0.00 in0.0 mm
04:50 AM 0.0°F-17.8°C -9.0°F-22.8°C 65% Calm Calm -- 30.47 in1031.8 mb - 0.00 in0.0 mm 0.00 in0.0 mm
05:00 AM -0.1°F-17.8°C -9.1°F-22.8°C 65% 1.2 mph N1.9 kmh N 3.5 mph5.6 kmh 30.46 in1031.5 mb - 0.00 in0.0 mm 0.00 in0.0 mm
05:10 AM -0.3°F-17.9°C -9.6°F-23.1°C 64% Calm Calm 2.3 mph3.7 kmh 30.47 in1031.8 mb - 0.00 in0.0 mm 0.00 in0.0 mm
05:20 AM -0.4°F-18.0°C -9.4°F-23.0°C 65% Calm Calm 1.2 mph1.9 kmh 30.46 in1031.5 mb - 0.00 in0.0 mm 0.00 in0.0 mm
05:30 AM -0.6°F-18.1°C -9.5°F-23.1°C 65% 1.2 mph NNE1.9 kmh NNE 2.3 mph3.7 kmh 30.46 in1031.5 mb - 0.00 in0.0 mm 0.00 in0.0 mm
05:40 AM -0.8°F-18.2°C -10.1°F-23.4°C 64% 1.2 mph NNE1.9 kmh NNE 3.5 mph5.6 kmh 30.47 in1031.8 mb - 0.00 in0.0 mm 0.00 in0.0 mm
05:50 AM -0.9°F-18.3°C -9.8°F-23.2°C 65% 1.2 mph NNE1.9 kmh NNE 4.6 mph7.4 kmh 30.48 in1032.2 mb - 0.00 in0.0 mm 0.00 in0.0 mm
06:00 AM -1.0°F-18.3°C -9.9°F-23.3°C 65% Calm Calm -- 30.48 in1032.2 mb - 0.00 in0.0 mm 0.00 in0.0 mm
06:10 AM -1.1°F-18.4°C -10.1°F-23.4°C 65% 1.2 mph NNE1.9 kmh NNE 3.5 mph5.6 kmh 30.48 in1032.2 mb - 0.00 in0.0 mm 0.00 in0.0 mm
06:20 AM -1.4°F-18.6°C -10.3°F-23.5°C 65% 1.2 mph NNE1.9 kmh NNE 2.3 mph3.7 kmh 30.48 in1032.2 mb - 0.00 in0.0 mm 0.00 in0.0 mm
06:30 AM -1.6°F-18.7°C -10.8°F-23.8°C 64% Calm Calm 3.5 mph5.6 kmh 30.48 in1032.2 mb - 0.00 in0.0 mm 0.00 in0.0 mm
06:40 AM -1.9°F-18.8°C -11.4°F-24.1°C 63% Calm Calm -- 30.49 in1032.5 mb - 0.00 in0.0 mm 0.00 in0.0 mm
06:50 AM -2.0°F-18.9°C -11.2°F-24.0°C 64% 3.5 mph NNE5.6 kmh NNE 5.8 mph9.3 kmh 30.49 in1032.5 mb - 0.00 in0.0 mm 0.00 in0.0 mm
07:00 AM -2.1°F-18.9°C -11.3°F-24.1°C 64% 1.2 mph NNE1.9 kmh NNE 2.3 mph3.7 kmh 30.49 in1032.5 mb - 0.00 in0.0 mm 0.00 in0.0 mm
07:10 AM -2.2°F-19.0°C -11.4°F-24.1°C 64% Calm Calm -- 30.49 in1032.5 mb - 0.00 in0.0 mm 0.00 in0.0 mm
07:20 AM -2.4°F-19.1°C -11.6°F-24.2°C 64% Calm Calm -- 30.49 in1032.5 mb - 0.00 in0.0 mm 0.00 in0.0 mm
07:30 AM -2.7°F-19.3°C -11.9°F-24.4°C 64% 3.5 mph N5.6 kmh N 3.5 mph5.6 kmh 30.50 in1032.8 mb - 0.00 in0.0 mm 0.00 in0.0 mm
07:40 AM -2.9°F-19.4°C -12.1°F-24.5°C 64% Calm Calm -- 30.49 in1032.5 mb - 0.00 in0.0 mm 0.00 in0.0 mm
07:50 AM -3.0°F-19.4°C -12.2°F-24.6°C 64% Calm Calm -- 30.49 in1032.5 mb - 0.00 in0.0 mm 0.00 in0.0 mm
08:00 AM -3.1°F-19.5°C -12.3°F-24.6°C 64% 1.2 mph N1.9 kmh N 3.5 mph5.6 kmh 30.50 in1032.8 mb - 0.00 in0.0 mm 0.00 in0.0 mm
08:10 AM -3.3°F-19.6°C -12.7°F-24.8°C 63% 2.3 mph NNE3.7 kmh NNE 3.5 mph5.6 kmh 30.50 in1032.8 mb - 0.00 in0.0 mm 0.00 in0.0 mm
08:20 AM -3.2°F-19.6°C -12.7°F-24.8°C 63% 2.3 mph NNE3.7 kmh NNE 4.6 mph7.4 kmh 30.50 in1032.8 mb - 0.00 in0.0 mm 0.00 in0.0 mm
08:30 AM -3.2°F-19.6°C -13.0°F-25.0°C 62% 2.3 mph NNE3.7 kmh NNE 4.6 mph7.4 kmh 30.50 in1032.8 mb - 0.00 in0.0 mm 0.00 in0.0 mm
08:40 AM -3.1°F-19.5°C -12.9°F-24.9°C 62% Calm Calm -- 30.50 in1032.8 mb - 0.00 in0.0 mm 0.00 in0.0 mm
08:50 AM -2.8°F-19.3°C -12.6°F-24.8°C 62% Calm Calm 3.5 mph5.6 kmh 30.50 in1032.8 mb - 0.00 in0.0 mm 0.00 in0.0 mm
09:00 AM -2.3°F-19.1°C -12.8°F-24.9°C 60% 3.5 mph NNE5.6 kmh NNE 4.6 mph7.4 kmh 30.50 in1032.8 mb - 0.00 in0.0 mm 0.00 in0.0 mm
09:10 AM -1.6°F-18.7°C -12.5°F-24.7°C 59% 2.3 mph N3.7 kmh N 3.5 mph5.6 kmh 30.50 in1032.8 mb - 0.00 in0.0 mm 0.00 in0.0 mm
09:20 AM -1.2°F-18.4°C -12.4°F-24.7°C 58% Calm Calm 1.2 mph1.9 kmh 30.50 in1032.8 mb - 0.00 in0.0 mm 0.00 in0.0 mm
09:30 AM -0.6°F-18.1°C -12.2°F-24.6°C 57% 1.2 mph NW1.9 kmh NW 3.5 mph5.6 kmh 30.50 in1032.8 mb - 0.00 in0.0 mm 0.00 in0.0 mm
09:40 AM -0.3°F-17.9°C -12.6°F-24.8°C 55% 2.3 mph N3.7 kmh N 3.5 mph5.6 kmh 30.50 in1032.8 mb - 0.00 in0.0 mm 0.00 in0.0 mm
09:50 AM -0.3°F-17.9°C -12.6°F-24.8°C 55% Calm Calm 3.5 mph5.6 kmh 30.50 in1032.8 mb - 0.00 in0.0 mm 0.00 in0.0 mm
10:00 AM 0.0°F-17.8°C -12.7°F-24.8°C 54% Calm Calm -- 30.49 in1032.5 mb - 0.00 in0.0 mm 0.00 in0.0 mm
10:10 AM 0.4°F-17.6°C -12.4°F-24.7°C 54% Calm Calm -- 30.50 in1032.8 mb - 0.00 in0.0 mm 0.00 in0.0 mm
10:20 AM 0.8°F-17.3°C -12.3°F-24.6°C 53% 1.2 mph N1.9 kmh N 2.3 mph3.7 kmh 30.50 in1032.8 mb - 0.00 in0.0 mm 0.00 in0.0 mm
10:30 AM 0.8°F-17.3°C -12.4°F-24.7°C 53% Calm Calm -- 30.49 in1032.5 mb - 0.00 in0.0 mm 0.00 in0.0 mm
10:40 AM 1.3°F-17.1°C -12.3°F-24.6°C 52% 3.5 mph NNW5.6 kmh NNW 4.6 mph7.4 kmh 30.49 in1032.5 mb - 0.00 in0.0 mm 0.00 in0.0 mm
10:50 AM 1.7°F-16.8°C -11.9°F-24.4°C 52% 2.3 mph N3.7 kmh N 3.5 mph5.6 kmh 30.50 in1032.8 mb - 0.00 in0.0 mm 0.00 in0.0 mm
11:00 AM 2.0°F-16.7°C -12.0°F-24.4°C 51% 1.2 mph NNW1.9 kmh NNW 3.5 mph5.6 kmh 30.50 in1032.8 mb - 0.00 in0.0 mm 0.00 in0.0 mm
11:10 AM 2.8°F-16.2°C -11.6°F-24.2°C 50% 2.3 mph N3.7 kmh N 4.6 mph7.4 kmh 30.49 in1032.5 mb - 0.00 in0.0 mm 0.00 in0.0 mm
11:20 AM 3.7°F-15.7°C -10.8°F-23.8°C 50% 1.2 mph N1.9 kmh N 3.5 mph5.6 kmh 30.48 in1032.2 mb - 0.00 in0.0 mm 0.00 in0.0 mm
11:30 AM 4.4°F-15.3°C -10.1°F-23.4°C 50% Calm Calm 1.2 mph1.9 kmh 30.48 in1032.2 mb - 0.00 in0.0 mm 0.00 in0.0 mm
11:40 AM 5.5°F-14.7°C -9.6°F-23.1°C 49% 2.3 mph NNW3.7 kmh NNW 3.5 mph5.6 kmh 30.47 in1031.8 mb - 0.00 in0.0 mm 0.00 in0.0 mm
11:50 AM 6.3°F-14.3°C -9.2°F-22.9°C 48% 1.2 mph NNE1.9 kmh NNE 3.5 mph5.6 kmh 30.46 in1031.5 mb - 0.00 in0.0 mm 0.00 in0.0 mm
12:00 PM 6.9°F-13.9°C -8.7°F-22.6°C 48% 1.2 mph NNE1.9 kmh NNE 2.3 mph3.7 kmh 30.46 in1031.5 mb - 0.00 in0.0 mm 0.00 in0.0 mm
12:10 PM 7.2°F-13.8°C -8.8°F-22.7°C 47% 2.3 mph NNE3.7 kmh NNE 4.6 mph7.4 kmh 30.46 in1031.5 mb - 0.00 in0.0 mm 0.00 in0.0 mm
12:20 PM 7.4°F-13.7°C -8.7°F-22.6°C 47% 2.3 mph N3.7 kmh N 4.6 mph7.4 kmh 30.46 in1031.5 mb - 0.00 in0.0 mm 0.00 in0.0 mm
12:30 PM 7.6°F-13.6°C -8.1°F-22.3°C 48% 2.3 mph N3.7 kmh N 4.6 mph7.4 kmh 30.46 in1031.5 mb - 0.00 in0.0 mm 0.00 in0.0 mm
12:40 PM 7.9°F-13.4°C -7.7°F-22.1°C 48% 1.2 mph NW1.9 kmh NW 3.5 mph5.6 kmh 30.46 in1031.5 mb - 0.00 in0.0 mm 0.00 in0.0 mm
12:50 PM 8.2°F-13.2°C -7.1°F-21.7°C 49% Calm Calm -- 30.46 in1031.5 mb - 0.00 in0.0 mm 0.00 in0.0 mm
01:00 PM 8.5°F-13.1°C -7.2°F-21.8°C 48% 2.3 mph NW3.7 kmh NW 6.9 mph11.1 kmh 30.45 in1031.2 mb - 0.00 in0.0 mm 0.00 in0.0 mm
01:10 PM 9.0°F-12.8°C -6.3°F-21.3°C 49% 2.3 mph NW3.7 kmh NW 4.6 mph7.4 kmh 30.45 in1031.2 mb - 0.00 in0.0 mm 0.00 in0.0 mm
01:20 PM 8.7°F-12.9°C -7.0°F-21.7°C 48% 1.2 mph NW1.9 kmh NW 4.6 mph7.4 kmh 30.45 in1031.2 mb - 0.00 in0.0 mm 0.00 in0.0 mm
01:30 PM 8.6°F-13.0°C -6.7°F-21.5°C 49% 1.2 mph N1.9 kmh N 3.5 mph5.6 kmh 30.45 in1031.2 mb - 0.00 in0.0 mm 0.00 in0.0 mm
01:40 PM 8.6°F-13.0°C -6.3°F-21.3°C 50% Calm Calm 1.2 mph1.9 kmh 30.44 in1030.8 mb - 0.00 in0.0 mm 0.00 in0.0 mm
01:50 PM 9.0°F-12.8°C -5.9°F-21.1°C 50% 2.3 mph W3.7 kmh W 4.6 mph7.4 kmh 30.44 in1030.8 mb - 0.00 in0.0 mm 0.00 in0.0 mm
02:00 PM 8.9°F-12.8°C -6.0°F-21.1°C 50% Calm Calm 1.2 mph1.9 kmh 30.43 in1030.5 mb - 0.00 in0.0 mm 0.00 in0.0 mm
02:10 PM 9.1°F-12.7°C -5.4°F-20.8°C 51% 2.3 mph N3.7 kmh N 6.9 mph11.1 kmh 30.43 in1030.5 mb - 0.00 in0.0 mm 0.00 in0.0 mm
02:20 PM 9.1°F-12.7°C -5.8°F-21.0°C 50% Calm Calm -- 30.42 in1030.1 mb - 0.00 in0.0 mm 0.00 in0.0 mm
02:30 PM 9.2°F-12.7°C -5.3°F-20.7°C 51% 1.2 mph NNE1.9 kmh NNE 1.2 mph1.9 kmh 30.42 in1030.1 mb - 0.00 in0.0 mm 0.00 in0.0 mm
02:40 PM 9.8°F-12.3°C -5.2°F-20.7°C 50% 1.2 mph NW1.9 kmh NW 4.6 mph7.4 kmh 30.42 in1030.1 mb - 0.00 in0.0 mm 0.00 in0.0 mm
02:50 PM 10.2°F-12.1°C -4.8°F-20.4°C 50% Calm Calm -- 30.41 in1029.8 mb - 0.00 in0.0 mm 0.00 in0.0 mm
03:00 PM 10.1°F-12.2°C -6.2°F-21.2°C 47% 1.2 mph N1.9 kmh N 3.5 mph5.6 kmh 30.41 in1029.8 mb - 0.00 in0.0 mm 0.00 in0.0 mm
03:10 PM 10.2°F-12.1°C -7.0°F-21.7°C 45% Calm Calm 2.3 mph3.7 kmh 30.41 in1029.8 mb - 0.00 in0.0 mm 0.00 in0.0 mm
03:20 PM 9.8°F-12.3°C -8.3°F-22.4°C 43% 2.3 mph N3.7 kmh N 3.5 mph5.6 kmh 30.41 in1029.8 mb - 0.00 in0.0 mm 0.00 in0.0 mm
03:30 PM 9.1°F-12.7°C -9.9°F-23.3°C 41% 2.3 mph NW3.7 kmh NW 4.6 mph7.4 kmh 30.41 in1029.8 mb - 0.00 in0.0 mm 0.00 in0.0 mm
03:40 PM 8.6°F-13.0°C -11.9°F-24.4°C 38% 1.2 mph NW1.9 kmh NW 3.5 mph5.6 kmh 30.41 in1029.8 mb - 0.00 in0.0 mm 0.00 in0.0 mm
03:50 PM 8.3°F-13.2°C -11.6°F-24.2°C 39% 1.2 mph NW1.9 kmh NW 3.5 mph5.6 kmh 30.41 in1029.8 mb - 0.00 in0.0 mm 0.00 in0.0 mm
04:00 PM 8.0°F-13.3°C -11.4°F-24.1°C 40% 1.2 mph NNW1.9 kmh NNW 2.3 mph3.7 kmh 30.41 in1029.8 mb - 0.00 in0.0 mm 0.00 in0.0 mm
04:10 PM 7.7°F-13.5°C -12.2°F-24.6°C 39% 1.2 mph NNW1.9 kmh NNW 3.5 mph5.6 kmh 30.41 in1029.8 mb - 0.00 in0.0 mm 0.00 in0.0 mm
04:20 PM 7.4°F-13.7°C -12.4°F-24.7°C 39% Calm Calm -- 30.41 in1029.8 mb - 0.00 in0.0 mm 0.00 in0.0 mm
04:30 PM 7.2°F-13.8°C -13.7°F-25.4°C 37% Calm Calm -- 30.41 in1029.8 mb - 0.00 in0.0 mm 0.00 in0.0 mm
04:40 PM 6.8°F-14.0°C -14.6°F-25.9°C 36% 2.3 mph NE3.7 kmh NE 5.8 mph9.3 kmh 30.42 in1030.1 mb - 0.00 in0.0 mm 0.00 in0.0 mm
04:50 PM 6.4°F-14.2°C -13.9°F-25.5°C 38% Calm Calm 1.2 mph1.9 kmh 30.42 in1030.1 mb - 0.00 in0.0 mm 0.00 in0.0 mm
05:00 PM 6.0°F-14.4°C -14.7°F-25.9°C 37% Calm Calm -- 30.42 in1030.1 mb - 0.00 in0.0 mm 0.00 in0.0 mm
05:10 PM 5.6°F-14.7°C -14.6°F-25.9°C 38% 1.2 mph N1.9 kmh N -- 30.42 in1030.1 mb - 0.00 in0.0 mm 0.00 in0.0 mm
05:20 PM 5.2°F-14.9°C -14.4°F-25.8°C 39% Calm Calm 2.3 mph3.7 kmh 30.42 in1030.1 mb - 0.00 in0.0 mm 0.00 in0.0 mm
05:30 PM 4.9°F-15.1°C -15.2°F-26.2°C 38% 1.2 mph N1.9 kmh N 3.5 mph5.6 kmh 30.43 in1030.5 mb - 0.00 in0.0 mm 0.00 in0.0 mm
05:40 PM 4.6°F-15.2°C -15.0°F-26.1°C 39% Calm Calm -- 30.42 in1030.1 mb - 0.00 in0.0 mm 0.00 in0.0 mm
05:50 PM 4.3°F-15.4°C -15.2°F-26.2°C 39% 1.2 mph N1.9 kmh N 3.5 mph5.6 kmh 30.43 in1030.5 mb - 0.00 in0.0 mm 0.00 in0.0 mm
06:00 PM 4.2°F-15.4°C -15.4°F-26.3°C 39% Calm Calm 3.5 mph5.6 kmh 30.44 in1030.8 mb - 0.00 in0.0 mm 0.00 in0.0 mm
06:10 PM 4.0°F-15.6°C -15.0°F-26.1°C 40% Calm Calm 3.5 mph5.6 kmh 30.44 in1030.8 mb - 0.00 in0.0 mm 0.00 in0.0 mm
06:20 PM 3.8°F-15.7°C -14.7°F-25.9°C 41% Calm Calm -- 30.44 in1030.8 mb - 0.00 in0.0 mm 0.00 in0.0 mm
06:30 PM 3.7°F-15.7°C -14.8°F-26.0°C 41% Calm Calm -- 30.44 in1030.8 mb - 0.00 in0.0 mm 0.00 in0.0 mm
06:40 PM 3.6°F-15.8°C -14.4°F-25.8°C 42% Calm Calm -- 30.44 in1030.8 mb - 0.00 in0.0 mm 0.00 in0.0 mm
06:50 PM 3.4°F-15.9°C -14.2°F-25.7°C 43% Calm Calm 2.3 mph3.7 kmh 30.44 in1030.8 mb - 0.00 in0.0 mm 0.00 in0.0 mm
07:00 PM 3.1°F-16.1°C -14.4°F-25.8°C 43% 1.2 mph NNW1.9 kmh NNW 3.5 mph5.6 kmh 30.44 in1030.8 mb - 0.00 in0.0 mm 0.00 in0.0 mm
07:10 PM 2.8°F-16.2°C -14.2°F-25.7°C 44% Calm Calm 2.3 mph3.7 kmh 30.45 in1031.2 mb - 0.00 in0.0 mm 0.00 in0.0 mm
07:20 PM 2.5°F-16.4°C -14.0°F-25.6°C 45% Calm Calm 3.5 mph5.6 kmh 30.45 in1031.2 mb - 0.00 in0.0 mm 0.00 in0.0 mm
07:30 PM 2.2°F-16.6°C -14.3°F-25.7°C 45% 1.2 mph N1.9 kmh N 4.6 mph7.4 kmh 30.45 in1031.2 mb - 0.00 in0.0 mm 0.00 in0.0 mm
07:40 PM 1.9°F-16.7°C -13.7°F-25.4°C 47% 1.2 mph N1.9 kmh N 2.3 mph3.7 kmh 30.45 in1031.2 mb - 0.00 in0.0 mm 0.00 in0.0 mm
07:50 PM 1.6°F-16.9°C -14.0°F-25.6°C 47% Calm Calm 2.3 mph3.7 kmh 30.46 in1031.5 mb - 0.00 in0.0 mm 0.00 in0.0 mm
08:00 PM 1.4°F-17.0°C -13.8°F-25.4°C 48% Calm Calm -- 30.46 in1031.5 mb - 0.00 in0.0 mm 0.00 in0.0 mm
08:10 PM 1.2°F-17.1°C -13.6°F-25.3°C 49% 1.2 mph N1.9 kmh N 3.5 mph5.6 kmh 30.45 in1031.2 mb - 0.00 in0.0 mm 0.00 in0.0 mm
08:20 PM 0.9°F-17.3°C -13.8°F-25.4°C 49% Calm Calm 3.5 mph5.6 kmh 30.45 in1031.2 mb - 0.00 in0.0 mm 0.00 in0.0 mm
08:30 PM 0.7°F-17.4°C -14.0°F-25.6°C 49% Calm Calm 3.5 mph5.6 kmh 30.45 in1031.2 mb - 0.00 in0.0 mm 0.00 in0.0 mm
08:40 PM 0.6°F-17.4°C -13.7°F-25.4°C 50% 2.3 mph N3.7 kmh N 3.5 mph5.6 kmh 30.44 in1030.8 mb - 0.00 in0.0 mm 0.00 in0.0 mm
08:50 PM 0.4°F-17.6°C -13.9°F-25.5°C 50% Calm Calm 1.2 mph1.9 kmh 30.43 in1030.5 mb - 0.00 in0.0 mm 0.00 in0.0 mm
09:00 PM 0.2°F-17.7°C -13.7°F-25.4°C 51% Calm Calm 1.2 mph1.9 kmh 30.43 in1030.5 mb - 0.00 in0.0 mm 0.00 in0.0 mm
09:10 PM 0.0°F-17.8°C -13.9°F-25.5°C 51% Calm Calm 1.2 mph1.9 kmh 30.43 in1030.5 mb - 0.00 in0.0 mm 0.00 in0.0 mm
09:20 PM -0.1°F-17.8°C -13.6°F-25.3°C 52% 1.2 mph NNE1.9 kmh NNE 2.3 mph3.7 kmh 30.43 in1030.5 mb - 0.00 in0.0 mm 0.00 in0.0 mm
09:30 PM -0.2°F-17.9°C -13.7°F-25.4°C 52% Calm Calm -- 30.43 in1030.5 mb - 0.00 in0.0 mm 0.00 in0.0 mm
09:40 PM -0.3°F-17.9°C -13.4°F-25.2°C 53% Calm Calm -- 30.43 in1030.5 mb - 0.00 in0.0 mm 0.00 in0.0 mm
09:50 PM -0.4°F-18.0°C -13.8°F-25.4°C 52% Calm Calm -- 30.43 in1030.5 mb - 0.00 in0.0 mm 0.00 in0.0 mm
10:00 PM -0.5°F-18.1°C -13.6°F-25.3°C 53% Calm Calm -- 30.43 in1030.5 mb - 0.00 in0.0 mm 0.00 in0.0 mm
10:10 PM -0.7°F-18.2°C -13.7°F-25.4°C 53% Calm Calm -- 30.44 in1030.8 mb - 0.00 in0.0 mm 0.00 in0.0 mm
10:20 PM -0.8°F-18.2°C -13.5°F-25.3°C 54% Calm Calm -- 30.44 in1030.8 mb - 0.00 in0.0 mm 0.00 in0.0 mm
10:30 PM -0.9°F-18.3°C -13.6°F-25.3°C 54% Calm Calm 2.3 mph3.7 kmh 30.44 in1030.8 mb - 0.00 in0.0 mm 0.00 in0.0 mm
10:40 PM -1.0°F-18.3°C -13.3°F-25.2°C 55% Calm Calm 2.3 mph3.7 kmh 30.44 in1030.8 mb - 0.00 in0.0 mm 0.00 in0.0 mm
10:50 PM -1.2°F-18.4°C -13.5°F-25.3°C 55% 1.2 mph N1.9 kmh N 3.5 mph5.6 kmh 30.45 in1031.2 mb - 0.00 in0.0 mm 0.00 in0.0 mm
11:00 PM -1.3°F-18.5°C -13.2°F-25.1°C 56% Calm Calm 3.5 mph5.6 kmh 30.46 in1031.5 mb - 0.00 in0.0 mm 0.00 in0.0 mm
11:10 PM -1.5°F-18.6°C -13.4°F-25.2°C 56% 1.2 mph NNE1.9 kmh NNE 3.5 mph5.6 kmh 30.47 in1031.8 mb - 0.00 in0.0 mm 0.00 in0.0 mm
11:20 PM -1.7°F-18.7°C -13.6°F-25.3°C 56% Calm Calm 5.8 mph9.3 kmh 30.48 in1032.2 mb - 0.00 in0.0 mm 0.00 in0.0 mm
11:30 PM -1.9°F-18.8°C -13.4°F-25.2°C 57% 1.2 mph NNE1.9 kmh NNE 3.5 mph5.6 kmh 30.47 in1031.8 mb - 0.00 in0.0 mm 0.00 in0.0 mm
11:40 PM -1.9°F-18.8°C -13.4°F-25.2°C 57% 3.5 mph NE5.6 kmh NE 3.5 mph5.6 kmh 30.47 in1031.8 mb - 0.00 in0.0 mm 0.00 in0.0 mm
11:50 PM -1.8°F-18.8°C -13.3°F-25.2°C 57% 3.5 mph NNE5.6 kmh NNE 5.8 mph9.3 kmh 30.47 in1031.8 mb - 0.00 in0.0 mm 0.00 in0.0 mm